sensor_id;sensor_type;location;lat;lon;timestamp;P1;durP1;ratioP1;P2;durP2;ratioP2
19848;SDS011;10085;51.120;6.956;2023-07-02T00:02:49;7.18;;;3.38;;
19848;SDS011;10085;51.120;6.956;2023-07-02T00:07:51;6.50;;;3.38;;
19848;SDS011;10085;51.120;6.956;2023-07-02T00:12:54;6.18;;;2.90;;
19848;SDS011;10085;51.120;6.956;2023-07-02T00:17:58;6.68;;;2.85;;
19848;SDS011;10085;51.120;6.956;2023-07-02T00:23:01;6.07;;;2.38;;
19848;SDS011;10085;51.120;6.956;2023-07-02T00:28:04;3.22;;;2.20;;
19848;SDS011;10085;51.120;6.956;2023-07-02T00:33:08;6.95;;;2.92;;
19848;SDS011;10085;51.120;6.956;2023-07-02T00:38:11;7.70;;;3.08;;
19848;SDS011;10085;51.120;6.956;2023-07-02T00:43:14;6.70;;;2.50;;
19848;SDS011;10085;51.120;6.956;2023-07-02T00:48:18;9.70;;;3.05;;
19848;SDS011;10085;51.120;6.956;2023-07-02T00:53:21;7.03;;;2.78;;
19848;SDS011;10085;51.120;6.956;2023-07-02T00:58:24;13.15;;;3.92;;
19848;SDS011;10085;51.120;6.956;2023-07-02T01:03:28;7.35;;;3.42;;
19848;SDS011;10085;51.120;6.956;2023-07-02T01:08:34;9.30;;;4.00;;
19848;SDS011;10085;51.120;6.956;2023-07-02T01:13:38;11.48;;;3.70;;
19848;SDS011;10085;51.120;6.956;2023-07-02T01:18:42;9.43;;;4.07;;
19848;SDS011;10085;51.120;6.956;2023-07-02T01:23:47;10.10;;;3.80;;
19848;SDS011;10085;51.120;6.956;2023-07-02T01:28:50;12.40;;;4.35;;
19848;SDS011;10085;51.120;6.956;2023-07-02T01:33:52;9.88;;;4.20;;
19848;SDS011;10085;51.120;6.956;2023-07-02T01:38:56;11.85;;;3.97;;
19848;SDS011;10085;51.120;6.956;2023-07-02T01:44:00;10.73;;;4.72;;
19848;SDS011;10085;51.120;6.956;2023-07-02T01:49:03;9.70;;;4.88;;
19848;SDS011;10085;51.120;6.956;2023-07-02T01:54:07;11.40;;;5.20;;
19848;SDS011;10085;51.120;6.956;2023-07-02T01:59:10;11.63;;;5.80;;
19848;SDS011;10085;51.120;6.956;2023-07-02T02:04:13;12.65;;;5.63;;
19848;SDS011;10085;51.120;6.956;2023-07-02T02:09:18;16.60;;;6.50;;
19848;SDS011;10085;51.120;6.956;2023-07-02T02:14:20;16.55;;;6.65;;
19848;SDS011;10085;51.120;6.956;2023-07-02T02:19:24;14.30;;;6.15;;
19848;SDS011;10085;51.120;6.956;2023-07-02T02:24:28;15.15;;;6.43;;
19848;SDS011;10085;51.120;6.956;2023-07-02T02:29:31;16.48;;;6.50;;
19848;SDS011;10085;51.120;6.956;2023-07-02T02:34:34;16.25;;;6.75;;
19848;SDS011;10085;51.120;6.956;2023-07-02T02:39:38;18.30;;;6.82;;
19848;SDS011;10085;51.120;6.956;2023-07-02T02:44:41;18.17;;;8.15;;
19848;SDS011;10085;51.120;6.956;2023-07-02T02:49:44;15.43;;;7.00;;
19848;SDS011;10085;51.120;6.956;2023-07-02T02:54:50;20.15;;;8.25;;
19848;SDS011;10085;51.120;6.956;2023-07-02T02:59:54;19.00;;;7.45;;
19848;SDS011;10085;51.120;6.956;2023-07-02T03:04:56;18.33;;;8.18;;
19848;SDS011;10085;51.120;6.956;2023-07-02T03:10:05;15.90;;;7.50;;
19848;SDS011;10085;51.120;6.956;2023-07-02T03:15:09;18.92;;;7.57;;
19848;SDS011;10085;51.120;6.956;2023-07-02T03:20:12;18.95;;;8.32;;
19848;SDS011;10085;51.120;6.956;2023-07-02T03:25:17;15.43;;;7.03;;
19848;SDS011;10085;51.120;6.956;2023-07-02T03:30:19;20.08;;;7.97;;
19848;SDS011;10085;51.120;6.956;2023-07-02T03:35:22;18.50;;;8.07;;
19848;SDS011;10085;51.120;6.956;2023-07-02T03:40:26;24.42;;;9.52;;
19848;SDS011;10085;51.120;6.956;2023-07-02T03:45:29;20.35;;;9.20;;
19848;SDS011;10085;51.120;6.956;2023-07-02T03:50:32;20.83;;;8.57;;
19848;SDS011;10085;51.120;6.956;2023-07-02T03:55:36;22.95;;;9.52;;
19848;SDS011;10085;51.120;6.956;2023-07-02T04:00:40;21.23;;;9.60;;
19848;SDS011;10085;51.120;6.956;2023-07-02T04:05:45;21.50;;;9.32;;
19848;SDS011;10085;51.120;6.956;2023-07-02T04:10:49;19.33;;;8.73;;
19848;SDS011;10085;51.120;6.956;2023-07-02T04:15:52;27.35;;;9.77;;
19848;SDS011;10085;51.120;6.956;2023-07-02T04:20:55;23.85;;;10.63;;
19848;SDS011;10085;51.120;6.956;2023-07-02T04:25:59;19.55;;;9.25;;
19848;SDS011;10085;51.120;6.956;2023-07-02T04:31:22;26.63;;;9.77;;
19848;SDS011;10085;51.120;6.956;2023-07-02T04:36:25;23.33;;;9.30;;
19848;SDS011;10085;51.120;6.956;2023-07-02T04:41:31;28.48;;;11.52;;
19848;SDS011;10085;51.120;6.956;2023-07-02T04:46:34;25.30;;;11.20;;
19848;SDS011;10085;51.120;6.956;2023-07-02T04:51:37;23.63;;;10.23;;
19848;SDS011;10085;51.120;6.956;2023-07-02T04:56:41;24.85;;;10.40;;
19848;SDS011;10085;51.120;6.956;2023-07-02T05:01:44;27.35;;;11.35;;
19848;SDS011;10085;51.120;6.956;2023-07-02T05:06:47;26.45;;;10.55;;
19848;SDS011;10085;51.120;6.956;2023-07-02T05:11:51;26.75;;;11.57;;
19848;SDS011;10085;51.120;6.956;2023-07-02T05:16:54;29.25;;;11.82;;
19848;SDS011;10085;51.120;6.956;2023-07-02T05:21:57;28.90;;;11.70;;
19848;SDS011;10085;51.120;6.956;2023-07-02T05:27:01;26.95;;;11.18;;
19848;SDS011;10085;51.120;6.956;2023-07-02T05:32:04;27.25;;;11.88;;
19848;SDS011;10085;51.120;6.956;2023-07-02T05:37:08;28.75;;;12.13;;
19848;SDS011;10085;51.120;6.956;2023-07-02T05:42:12;30.52;;;12.27;;
19848;SDS011;10085;51.120;6.956;2023-07-02T05:47:15;28.00;;;11.70;;
19848;SDS011;10085;51.120;6.956;2023-07-02T05:52:18;30.30;;;13.02;;
19848;SDS011;10085;51.120;6.956;2023-07-02T05:57:22;29.60;;;12.45;;
19848;SDS011;10085;51.120;6.956;2023-07-02T06:02:25;34.97;;;12.98;;
19848;SDS011;10085;51.120;6.956;2023-07-02T06:07:28;28.75;;;12.43;;
19848;SDS011;10085;51.120;6.956;2023-07-02T06:12:32;28.95;;;11.68;;
19848;SDS011;10085;51.120;6.956;2023-07-02T06:17:35;32.08;;;13.57;;
19848;SDS011;10085;51.120;6.956;2023-07-02T06:22:38;29.95;;;12.48;;
19848;SDS011;10085;51.120;6.956;2023-07-02T06:27:43;28.15;;;12.45;;
19848;SDS011;10085;51.120;6.956;2023-07-02T06:32:46;32.00;;;12.55;;
19848;SDS011;10085;51.120;6.956;2023-07-02T06:37:48;33.72;;;12.85;;
19848;SDS011;10085;51.120;6.956;2023-07-02T06:42:52;24.98;;;11.93;;
19848;SDS011;10085;51.120;6.956;2023-07-02T06:47:55;32.20;;;12.65;;
19848;SDS011;10085;51.120;6.956;2023-07-02T06:52:58;31.15;;;12.70;;
19848;SDS011;10085;51.120;6.956;2023-07-02T06:58:02;27.95;;;11.80;;
19848;SDS011;10085;51.120;6.956;2023-07-02T07:03:12;29.42;;;12.50;;
19848;SDS011;10085;51.120;6.956;2023-07-02T07:08:50;29.38;;;12.55;;
19848;SDS011;10085;51.120;6.956;2023-07-02T07:13:57;25.98;;;11.68;;
19848;SDS011;10085;51.120;6.956;2023-07-02T07:19:00;26.95;;;11.52;;
19848;SDS011;10085;51.120;6.956;2023-07-02T07:24:03;26.90;;;11.80;;
19848;SDS011;10085;51.120;6.956;2023-07-02T07:29:08;30.77;;;12.02;;
19848;SDS011;10085;51.120;6.956;2023-07-02T07:34:10;32.05;;;11.43;;
19848;SDS011;10085;51.120;6.956;2023-07-02T07:39:13;30.40;;;11.57;;
19848;SDS011;10085;51.120;6.956;2023-07-02T07:44:17;28.42;;;11.18;;
19848;SDS011;10085;51.120;6.956;2023-07-02T07:49:20;25.17;;;11.35;;
19848;SDS011;10085;51.120;6.956;2023-07-02T07:54:23;27.85;;;11.30;;
19848;SDS011;10085;51.120;6.956;2023-07-02T07:59:28;26.58;;;11.45;;
19848;SDS011;10085;51.120;6.956;2023-07-02T08:04:30;22.55;;;9.77;;
19848;SDS011;10085;51.120;6.956;2023-07-02T08:09:33;25.70;;;10.45;;
19848;SDS011;10085;51.120;6.956;2023-07-02T08:14:37;26.13;;;10.27;;
19848;SDS011;10085;51.120;6.956;2023-07-02T08:19:40;22.27;;;10.35;;
19848;SDS011;10085;51.120;6.956;2023-07-02T08:24:43;26.38;;;9.93;;
19848;SDS011;10085;51.120;6.956;2023-07-02T08:29:47;24.50;;;10.20;;
19848;SDS011;10085;51.120;6.956;2023-07-02T08:34:50;26.15;;;10.18;;
19848;SDS011;10085;51.120;6.956;2023-07-02T08:39:53;22.00;;;9.73;;
19848;SDS011;10085;51.120;6.956;2023-07-02T08:44:57;22.45;;;10.00;;
19848;SDS011;10085;51.120;6.956;2023-07-02T08:50:02;24.45;;;10.25;;
19848;SDS011;10085;51.120;6.956;2023-07-02T08:55:06;28.67;;;10.65;;
19848;SDS011;10085;51.120;6.956;2023-07-02T09:00:12;24.98;;;9.90;;
19848;SDS011;10085;51.120;6.956;2023-07-02T09:05:15;30.30;;;10.73;;
19848;SDS011;10085;51.120;6.956;2023-07-02T09:10:29;24.15;;;10.20;;
19848;SDS011;10085;51.120;6.956;2023-07-02T09:15:37;22.90;;;10.18;;
19848;SDS011;10085;51.120;6.956;2023-07-02T09:20:40;22.25;;;10.15;;
19848;SDS011;10085;51.120;6.956;2023-07-02T09:25:43;28.17;;;10.15;;
19848;SDS011;10085;51.120;6.956;2023-07-02T09:30:51;25.65;;;10.45;;
19848;SDS011;10085;51.120;6.956;2023-07-02T09:35:55;26.65;;;10.80;;
19848;SDS011;10085;51.120;6.956;2023-07-02T09:40:58;23.05;;;10.52;;
19848;SDS011;10085;51.120;6.956;2023-07-02T09:46:03;25.98;;;11.15;;
19848;SDS011;10085;51.120;6.956;2023-07-02T09:51:06;26.48;;;11.30;;
19848;SDS011;10085;51.120;6.956;2023-07-02T09:56:08;23.08;;;9.88;;
19848;SDS011;10085;51.120;6.956;2023-07-02T10:01:13;28.83;;;11.27;;
19848;SDS011;10085;51.120;6.956;2023-07-02T10:06:16;25.65;;;10.07;;
19848;SDS011;10085;51.120;6.956;2023-07-02T10:11:19;29.67;;;11.70;;
19848;SDS011;10085;51.120;6.956;2023-07-02T10:16:23;25.35;;;10.60;;
19848;SDS011;10085;51.120;6.956;2023-07-02T10:21:31;24.23;;;11.18;;
19848;SDS011;10085;51.120;6.956;2023-07-02T10:26:34;26.42;;;11.35;;
19848;SDS011;10085;51.120;6.956;2023-07-02T10:31:38;31.88;;;12.35;;
19848;SDS011;10085;51.120;6.956;2023-07-02T10:36:55;26.67;;;11.55;;
19848;SDS011;10085;51.120;6.956;2023-07-02T10:42:19;27.83;;;11.85;;
19848;SDS011;10085;51.120;6.956;2023-07-02T10:47:23;27.38;;;12.18;;
19848;SDS011;10085;51.120;6.956;2023-07-02T10:52:36;26.15;;;11.70;;
19848;SDS011;10085;51.120;6.956;2023-07-02T11:03:18;31.70;;;13.48;;
19848;SDS011;10085;51.120;6.956;2023-07-02T11:08:22;37.28;;;12.30;;
19848;SDS011;10085;51.120;6.956;2023-07-02T11:13:26;29.02;;;11.48;;
19848;SDS011;10085;51.120;6.956;2023-07-02T11:18:31;30.42;;;11.27;;
19848;SDS011;10085;51.120;6.956;2023-07-02T11:23:34;25.90;;;10.82;;
19848;SDS011;10085;51.120;6.956;2023-07-02T11:28:48;25.67;;;10.13;;
19848;SDS011;10085;51.120;6.956;2023-07-02T11:33:54;18.63;;;9.10;;
19848;SDS011;10085;51.120;6.956;2023-07-02T11:38:57;22.92;;;9.52;;
19848;SDS011;10085;51.120;6.956;2023-07-02T11:43:59;26.52;;;10.52;;
19848;SDS011;10085;51.120;6.956;2023-07-02T11:49:04;22.27;;;10.05;;
19848;SDS011;10085;51.120;6.956;2023-07-02T11:54:09;22.92;;;10.15;;
19848;SDS011;10085;51.120;6.956;2023-07-02T11:59:12;18.90;;;9.45;;
19848;SDS011;10085;51.120;6.956;2023-07-02T12:04:16;19.73;;;9.55;;
19848;SDS011;10085;51.120;6.956;2023-07-02T12:09:19;27.38;;;9.40;;
19848;SDS011;10085;51.120;6.956;2023-07-02T12:14:22;17.27;;;8.48;;
19848;SDS011;10085;51.120;6.956;2023-07-02T12:19:27;16.30;;;7.70;;
19848;SDS011;10085;51.120;6.956;2023-07-02T12:24:30;20.85;;;7.82;;
19848;SDS011;10085;51.120;6.956;2023-07-02T12:29:33;17.90;;;7.47;;
19848;SDS011;10085;51.120;6.956;2023-07-02T12:34:37;19.50;;;8.48;;
19848;SDS011;10085;51.120;6.956;2023-07-02T12:39:48;22.58;;;7.50;;
19848;SDS011;10085;51.120;6.956;2023-07-02T12:44:51;18.92;;;8.18;;
19848;SDS011;10085;51.120;6.956;2023-07-02T12:49:55;16.63;;;7.88;;
19848;SDS011;10085;51.120;6.956;2023-07-02T12:54:58;21.77;;;7.97;;
19848;SDS011;10085;51.120;6.956;2023-07-02T13:00:01;15.40;;;7.22;;
19848;SDS011;10085;51.120;6.956;2023-07-02T13:05:08;21.58;;;6.82;;
19848;SDS011;10085;51.120;6.956;2023-07-02T13:10:11;15.68;;;6.80;;
19848;SDS011;10085;51.120;6.956;2023-07-02T13:15:14;14.43;;;6.20;;
19848;SDS011;10085;51.120;6.956;2023-07-02T13:20:18;16.35;;;6.50;;
19848;SDS011;10085;51.120;6.956;2023-07-02T13:25:21;13.15;;;6.57;;
19848;SDS011;10085;51.120;6.956;2023-07-02T13:30:24;12.57;;;6.00;;
19848;SDS011;10085;51.120;6.956;2023-07-02T13:35:29;13.93;;;6.53;;
19848;SDS011;10085;51.120;6.956;2023-07-02T13:40:32;14.75;;;5.65;;
19848;SDS011;10085;51.120;6.956;2023-07-02T13:45:35;15.13;;;6.43;;
19848;SDS011;10085;51.120;6.956;2023-07-02T13:50:39;13.25;;;5.82;;
19848;SDS011;10085;51.120;6.956;2023-07-02T13:55:42;16.63;;;6.10;;
19848;SDS011;10085;51.120;6.956;2023-07-02T14:00:47;13.90;;;6.57;;
19848;SDS011;10085;51.120;6.956;2023-07-02T14:05:50;14.10;;;6.75;;
19848;SDS011;10085;51.120;6.956;2023-07-02T14:10:53;18.27;;;7.13;;
19848;SDS011;10085;51.120;6.956;2023-07-02T14:15:57;19.08;;;7.18;;
19848;SDS011;10085;51.120;6.956;2023-07-02T14:21:01;19.95;;;8.00;;
19848;SDS011;10085;51.120;6.956;2023-07-02T14:26:04;18.65;;;7.10;;
19848;SDS011;10085;51.120;6.956;2023-07-02T14:31:08;20.02;;;7.55;;
19848;SDS011;10085;51.120;6.956;2023-07-02T14:36:11;18.13;;;8.05;;
19848;SDS011;10085;51.120;6.956;2023-07-02T14:41:14;25.35;;;8.27;;
19848;SDS011;10085;51.120;6.956;2023-07-02T14:46:18;22.10;;;8.18;;
19848;SDS011;10085;51.120;6.956;2023-07-02T14:51:21;21.73;;;8.35;;
19848;SDS011;10085;51.120;6.956;2023-07-02T14:56:24;17.40;;;8.07;;
19848;SDS011;10085;51.120;6.956;2023-07-02T15:01:28;21.23;;;8.18;;
19848;SDS011;10085;51.120;6.956;2023-07-02T15:06:31;21.58;;;8.35;;
19848;SDS011;10085;51.120;6.956;2023-07-02T15:11:38;18.95;;;8.40;;
19848;SDS011;10085;51.120;6.956;2023-07-02T15:22:11;19.25;;;8.07;;
19848;SDS011;10085;51.120;6.956;2023-07-02T15:27:13;17.92;;;8.25;;
19848;SDS011;10085;51.120;6.956;2023-07-02T15:32:18;19.73;;;8.68;;
19848;SDS011;10085;51.120;6.956;2023-07-02T15:37:20;20.13;;;8.75;;
19848;SDS011;10085;51.120;6.956;2023-07-02T15:42:23;19.23;;;8.63;;
19848;SDS011;10085;51.120;6.956;2023-07-02T15:47:32;17.83;;;7.60;;
19848;SDS011;10085;51.120;6.956;2023-07-02T15:52:35;21.83;;;8.73;;
19848;SDS011;10085;51.120;6.956;2023-07-02T15:57:38;20.13;;;8.25;;
19848;SDS011;10085;51.120;6.956;2023-07-02T16:02:42;23.02;;;8.90;;
19848;SDS011;10085;51.120;6.956;2023-07-02T16:07:48;16.90;;;8.05;;
19848;SDS011;10085;51.120;6.956;2023-07-02T16:13:10;19.35;;;8.70;;
19848;SDS011;10085;51.120;6.956;2023-07-02T16:18:14;19.77;;;8.50;;
19848;SDS011;10085;51.120;6.956;2023-07-02T16:23:17;21.42;;;8.48;;
19848;SDS011;10085;51.120;6.956;2023-07-02T16:28:19;20.50;;;8.45;;
19848;SDS011;10085;51.120;6.956;2023-07-02T16:33:23;20.40;;;8.77;;
19848;SDS011;10085;51.120;6.956;2023-07-02T16:38:26;20.75;;;8.95;;
19848;SDS011;10085;51.120;6.956;2023-07-02T16:43:30;19.55;;;8.43;;
19848;SDS011;10085;51.120;6.956;2023-07-02T16:48:35;19.65;;;7.97;;
19848;SDS011;10085;51.120;6.956;2023-07-02T16:53:37;17.02;;;7.72;;
19848;SDS011;10085;51.120;6.956;2023-07-02T16:58:40;17.00;;;8.00;;
19848;SDS011;10085;51.120;6.956;2023-07-02T17:03:45;17.75;;;8.13;;
19848;SDS011;10085;51.120;6.956;2023-07-02T17:08:49;19.77;;;8.13;;
19848;SDS011;10085;51.120;6.956;2023-07-02T17:14:19;17.83;;;7.68;;
19848;SDS011;10085;51.120;6.956;2023-07-02T17:19:25;17.77;;;8.18;;
19848;SDS011;10085;51.120;6.956;2023-07-02T17:24:31;17.23;;;8.50;;
19848;SDS011;10085;51.120;6.956;2023-07-02T17:29:34;19.75;;;9.23;;
19848;SDS011;10085;51.120;6.956;2023-07-02T17:34:39;21.20;;;8.50;;
19848;SDS011;10085;51.120;6.956;2023-07-02T17:39:41;16.75;;;8.45;;
19848;SDS011;10085;51.120;6.956;2023-07-02T17:44:45;18.42;;;8.63;;
19848;SDS011;10085;51.120;6.956;2023-07-02T17:49:50;21.33;;;9.43;;
19848;SDS011;10085;51.120;6.956;2023-07-02T17:54:53;19.85;;;8.43;;
19848;SDS011;10085;51.120;6.956;2023-07-02T17:59:56;18.63;;;8.60;;
19848;SDS011;10085;51.120;6.956;2023-07-02T18:05:02;23.42;;;8.82;;
19848;SDS011;10085;51.120;6.956;2023-07-02T18:10:06;21.10;;;8.50;;
19848;SDS011;10085;51.120;6.956;2023-07-02T18:15:09;19.90;;;8.05;;
19848;SDS011;10085;51.120;6.956;2023-07-02T18:20:13;18.67;;;8.50;;
19848;SDS011;10085;51.120;6.956;2023-07-02T18:25:17;21.80;;;8.35;;
19848;SDS011;10085;51.120;6.956;2023-07-02T18:30:19;21.98;;;8.93;;
19848;SDS011;10085;51.120;6.956;2023-07-02T18:35:24;23.33;;;8.95;;
19848;SDS011;10085;51.120;6.956;2023-07-02T18:40:27;18.50;;;8.48;;
19848;SDS011;10085;51.120;6.956;2023-07-02T18:45:30;24.75;;;8.95;;
19848;SDS011;10085;51.120;6.956;2023-07-02T18:50:53;19.25;;;8.68;;
19848;SDS011;10085;51.120;6.956;2023-07-02T18:55:56;21.90;;;8.65;;
19848;SDS011;10085;51.120;6.956;2023-07-02T19:01:00;23.20;;;8.30;;
19848;SDS011;10085;51.120;6.956;2023-07-02T19:06:15;21.52;;;8.23;;
19848;SDS011;10085;51.120;6.956;2023-07-02T19:11:18;21.70;;;8.52;;
19848;SDS011;10085;51.120;6.956;2023-07-02T19:16:41;22.20;;;8.45;;
19848;SDS011;10085;51.120;6.956;2023-07-02T19:22:02;16.13;;;8.00;;
19848;SDS011;10085;51.120;6.956;2023-07-02T19:27:07;21.05;;;8.00;;
19848;SDS011;10085;51.120;6.956;2023-07-02T19:32:10;21.02;;;8.82;;
19848;SDS011;10085;51.120;6.956;2023-07-02T19:37:15;23.15;;;8.45;;
19848;SDS011;10085;51.120;6.956;2023-07-02T19:42:17;21.48;;;8.07;;
19848;SDS011;10085;51.120;6.956;2023-07-02T19:47:20;21.02;;;8.52;;
19848;SDS011;10085;51.120;6.956;2023-07-02T19:52:26;21.52;;;7.80;;
19848;SDS011;10085;51.120;6.956;2023-07-02T19:57:30;21.63;;;8.15;;
19848;SDS011;10085;51.120;6.956;2023-07-02T20:02:33;18.20;;;8.35;;
19848;SDS011;10085;51.120;6.956;2023-07-02T20:07:38;20.13;;;8.13;;
19848;SDS011;10085;51.120;6.956;2023-07-02T20:12:41;18.35;;;8.18;;
19848;SDS011;10085;51.120;6.956;2023-07-02T20:17:44;24.05;;;8.35;;
19848;SDS011;10085;51.120;6.956;2023-07-02T20:22:50;19.42;;;7.97;;
19848;SDS011;10085;51.120;6.956;2023-07-02T20:28:08;17.88;;;9.30;;
19848;SDS011;10085;51.120;6.956;2023-07-02T20:33:40;26.50;;;8.60;;
19848;SDS011;10085;51.120;6.956;2023-07-02T20:38:44;16.73;;;7.55;;
19848;SDS011;10085;51.120;6.956;2023-07-02T20:43:47;16.67;;;7.78;;
19848;SDS011;10085;51.120;6.956;2023-07-02T20:48:50;23.42;;;7.88;;
19848;SDS011;10085;51.120;6.956;2023-07-02T20:53:54;17.10;;;7.47;;
19848;SDS011;10085;51.120;6.956;2023-07-02T20:58:57;18.08;;;8.10;;
19848;SDS011;10085;51.120;6.956;2023-07-02T21:04:00;20.02;;;7.70;;
19848;SDS011;10085;51.120;6.956;2023-07-02T21:09:09;18.58;;;7.85;;
19848;SDS011;10085;51.120;6.956;2023-07-02T21:14:13;19.30;;;7.63;;
19848;SDS011;10085;51.120;6.956;2023-07-02T21:19:15;17.90;;;7.32;;
19848;SDS011;10085;51.120;6.956;2023-07-02T21:24:20;21.15;;;7.20;;
19848;SDS011;10085;51.120;6.956;2023-07-02T21:29:22;18.27;;;6.72;;
19848;SDS011;10085;51.120;6.956;2023-07-02T21:34:25;15.40;;;7.05;;
19848;SDS011;10085;51.120;6.956;2023-07-02T21:39:30;17.40;;;6.63;;
19848;SDS011;10085;51.120;6.956;2023-07-02T21:44:32;13.25;;;6.40;;
19848;SDS011;10085;51.120;6.956;2023-07-02T21:49:35;15.27;;;6.53;;
19848;SDS011;10085;51.120;6.956;2023-07-02T21:54:39;16.60;;;6.75;;
19848;SDS011;10085;51.120;6.956;2023-07-02T21:59:42;16.90;;;6.15;;
19848;SDS011;10085;51.120;6.956;2023-07-02T22:04:45;18.52;;;5.68;;
19848;SDS011;10085;51.120;6.956;2023-07-02T22:09:50;16.98;;;5.45;;
19848;SDS011;10085;51.120;6.956;2023-07-02T22:14:53;12.00;;;4.97;;
19848;SDS011;10085;51.120;6.956;2023-07-02T22:19:57;16.23;;;5.25;;
19848;SDS011;10085;51.120;6.956;2023-07-02T22:25:04;12.85;;;4.65;;
19848;SDS011;10085;51.120;6.956;2023-07-02T22:30:08;12.45;;;4.00;;
19848;SDS011;10085;51.120;6.956;2023-07-02T22:35:13;12.10;;;3.78;;
19848;SDS011;10085;51.120;6.956;2023-07-02T22:40:17;14.43;;;3.60;;
19848;SDS011;10085;51.120;6.956;2023-07-02T22:45:20;13.75;;;3.47;;
19848;SDS011;10085;51.120;6.956;2023-07-02T22:50:23;13.80;;;3.95;;
19848;SDS011;10085;51.120;6.956;2023-07-02T22:55:28;12.55;;;2.95;;
19848;SDS011;10085;51.120;6.956;2023-07-02T23:00:32;13.52;;;3.58;;
19848;SDS011;10085;51.120;6.956;2023-07-02T23:05:34;13.57;;;3.38;;
19848;SDS011;10085;51.120;6.956;2023-07-02T23:10:39;11.32;;;3.38;;
19848;SDS011;10085;51.120;6.956;2023-07-02T23:15:42;11.13;;;3.20;;
19848;SDS011;10085;51.120;6.956;2023-07-02T23:20:44;10.70;;;3.30;;
19848;SDS011;10085;51.120;6.956;2023-07-02T23:25:49;13.63;;;3.35;;
19848;SDS011;10085;51.120;6.956;2023-07-02T23:30:52;11.70;;;3.25;;
19848;SDS011;10085;51.120;6.956;2023-07-02T23:35:57;10.85;;;3.25;;
19848;SDS011;10085;51.120;6.956;2023-07-02T23:41:02;15.35;;;3.30;;
19848;SDS011;10085;51.120;6.956;2023-07-02T23:46:05;6.72;;;2.70;;
19848;SDS011;10085;51.120;6.956;2023-07-02T23:51:08;9.57;;;2.97;;
19848;SDS011;10085;51.120;6.956;2023-07-02T23:56:12;8.15;;;3.15;;
